sensor_id;sensor_type;location;lat;lon;timestamp;temperature;humidity
16995;DHT22;8614;48.522;9.206;2024-03-22T00:01:44;9.30;99.90
16995;DHT22;8614;48.522;9.206;2024-03-22T00:04:10;9.20;99.90
16995;DHT22;8614;48.522;9.206;2024-03-22T00:06:36;9.10;99.90
16995;DHT22;8614;48.522;9.206;2024-03-22T00:09:04;9.00;99.90
16995;DHT22;8614;48.522;9.206;2024-03-22T00:11:30;8.90;99.90
16995;DHT22;8614;48.522;9.206;2024-03-22T00:13:56;8.90;99.90
16995;DHT22;8614;48.522;9.206;2024-03-22T00:16:23;8.80;99.90
16995;DHT22;8614;48.522;9.206;2024-03-22T00:18:49;8.70;99.90
16995;DHT22;8614;48.522;9.206;2024-03-22T00:21:16;8.60;99.90
16995;DHT22;8614;48.522;9.206;2024-03-22T00:23:42;8.50;99.90
16995;DHT22;8614;48.522;9.206;2024-03-22T00:26:10;8.40;99.90
16995;DHT22;8614;48.522;9.206;2024-03-22T00:28:36;8.40;99.90
16995;DHT22;8614;48.522;9.206;2024-03-22T00:31:03;8.30;99.90
16995;DHT22;8614;48.522;9.206;2024-03-22T00:33:29;8.30;99.90
16995;DHT22;8614;48.522;9.206;2024-03-22T00:35:56;8.20;99.90
16995;DHT22;8614;48.522;9.206;2024-03-22T00:38:22;8.10;99.90
16995;DHT22;8614;48.522;9.206;2024-03-22T00:40:48;8.10;99.90
16995;DHT22;8614;48.522;9.206;2024-03-22T00:43:16;8.00;99.90
16995;DHT22;8614;48.522;9.206;2024-03-22T00:45:42;8.10;99.90
16995;DHT22;8614;48.522;9.206;2024-03-22T00:48:08;8.10;99.90
16995;DHT22;8614;48.522;9.206;2024-03-22T00:50:35;8.10;99.90
16995;DHT22;8614;48.522;9.206;2024-03-22T00:53:01;8.00;99.90
16995;DHT22;8614;48.522;9.206;2024-03-22T00:55:28;8.00;99.90
16995;DHT22;8614;48.522;9.206;2024-03-22T00:57:54;8.00;99.90
16995;DHT22;8614;48.522;9.206;2024-03-22T01:00:23;7.90;99.90
16995;DHT22;8614;48.522;9.206;2024-03-22T01:02:49;7.90;99.90
16995;DHT22;8614;48.522;9.206;2024-03-22T01:05:16;7.90;99.90
16995;DHT22;8614;48.522;9.206;2024-03-22T01:07:42;7.90;99.90
16995;DHT22;8614;48.522;9.206;2024-03-22T01:10:10;7.90;99.90
16995;DHT22;8614;48.522;9.206;2024-03-22T01:12:36;8.00;99.90
16995;DHT22;8614;48.522;9.206;2024-03-22T01:15:04;8.00;99.90
16995;DHT22;8614;48.522;9.206;2024-03-22T01:17:31;8.00;99.90
16995;DHT22;8614;48.522;9.206;2024-03-22T01:19:58;8.00;99.90
16995;DHT22;8614;48.522;9.206;2024-03-22T01:22:24;8.00;99.90
16995;DHT22;8614;48.522;9.206;2024-03-22T01:24:51;8.00;99.90
16995;DHT22;8614;48.522;9.206;2024-03-22T01:27:17;8.00;99.90
16995;DHT22;8614;48.522;9.206;2024-03-22T01:29:44;8.00;99.90
16995;DHT22;8614;48.522;9.206;2024-03-22T01:32:09;8.00;99.90
16995;DHT22;8614;48.522;9.206;2024-03-22T01:34:38;8.00;99.90
16995;DHT22;8614;48.522;9.206;2024-03-22T01:37:03;8.00;99.90
16995;DHT22;8614;48.522;9.206;2024-03-22T01:39:30;8.00;99.90
16995;DHT22;8614;48.522;9.206;2024-03-22T01:41:56;8.00;99.90
16995;DHT22;8614;48.522;9.206;2024-03-22T01:44:27;8.00;99.90
16995;DHT22;8614;48.522;9.206;2024-03-22T01:46:53;8.00;99.90
16995;DHT22;8614;48.522;9.206;2024-03-22T01:49:21;8.00;99.90
16995;DHT22;8614;48.522;9.206;2024-03-22T01:51:48;8.00;99.90
16995;DHT22;8614;48.522;9.206;2024-03-22T01:54:16;8.00;99.90
16995;DHT22;8614;48.522;9.206;2024-03-22T01:56:42;8.00;99.90
16995;DHT22;8614;48.522;9.206;2024-03-22T01:59:09;7.90;99.90
16995;DHT22;8614;48.522;9.206;2024-03-22T02:01:35;7.90;99.90
16995;DHT22;8614;48.522;9.206;2024-03-22T02:04:02;7.90;99.90
16995;DHT22;8614;48.522;9.206;2024-03-22T02:06:28;7.90;99.90
16995;DHT22;8614;48.522;9.206;2024-03-22T02:08:57;7.90;99.90
16995;DHT22;8614;48.522;9.206;2024-03-22T02:11:23;7.90;99.90
16995;DHT22;8614;48.522;9.206;2024-03-22T02:13:50;7.90;99.90
16995;DHT22;8614;48.522;9.206;2024-03-22T02:16:16;7.90;99.90
16995;DHT22;8614;48.522;9.206;2024-03-22T02:18:43;7.90;99.90
16995;DHT22;8614;48.522;9.206;2024-03-22T02:21:10;7.90;99.90
16995;DHT22;8614;48.522;9.206;2024-03-22T02:23:39;7.90;99.90
16995;DHT22;8614;48.522;9.206;2024-03-22T02:26:05;7.90;99.90
16995;DHT22;8614;48.522;9.206;2024-03-22T02:28:33;7.90;99.90
16995;DHT22;8614;48.522;9.206;2024-03-22T02:30:59;7.80;99.90
16995;DHT22;8614;48.522;9.206;2024-03-22T02:33:26;7.80;99.90
16995;DHT22;8614;48.522;9.206;2024-03-22T02:35:52;7.80;99.90
16995;DHT22;8614;48.522;9.206;2024-03-22T02:38:19;7.70;99.90
16995;DHT22;8614;48.522;9.206;2024-03-22T02:40:47;7.70;99.90
16995;DHT22;8614;48.522;9.206;2024-03-22T02:43:14;7.70;99.90
16995;DHT22;8614;48.522;9.206;2024-03-22T02:45:40;7.60;99.90
16995;DHT22;8614;48.522;9.206;2024-03-22T02:48:07;7.60;99.90
16995;DHT22;8614;48.522;9.206;2024-03-22T02:50:34;7.60;99.90
16995;DHT22;8614;48.522;9.206;2024-03-22T02:53:00;7.50;99.90
16995;DHT22;8614;48.522;9.206;2024-03-22T02:55:27;7.50;99.90
16995;DHT22;8614;48.522;9.206;2024-03-22T02:57:56;7.50;99.90
16995;DHT22;8614;48.522;9.206;2024-03-22T03:00:23;7.50;99.90
16995;DHT22;8614;48.522;9.206;2024-03-22T03:02:49;7.40;99.90
16995;DHT22;8614;48.522;9.206;2024-03-22T03:05:16;7.40;99.90
16995;DHT22;8614;48.522;9.206;2024-03-22T03:07:42;7.40;99.90
16995;DHT22;8614;48.522;9.206;2024-03-22T03:10:08;7.30;99.90
16995;DHT22;8614;48.522;9.206;2024-03-22T03:12:34;7.30;99.90
16995;DHT22;8614;48.522;9.206;2024-03-22T03:15:03;7.20;99.90
16995;DHT22;8614;48.522;9.206;2024-03-22T03:17:29;7.20;99.90
16995;DHT22;8614;48.522;9.206;2024-03-22T03:19:56;7.20;99.90
16995;DHT22;8614;48.522;9.206;2024-03-22T03:22:21;7.20;99.90
16995;DHT22;8614;48.522;9.206;2024-03-22T03:24:48;7.20;99.90
16995;DHT22;8614;48.522;9.206;2024-03-22T03:27:14;7.20;99.90
16995;DHT22;8614;48.522;9.206;2024-03-22T03:29:41;7.20;99.90
16995;DHT22;8614;48.522;9.206;2024-03-22T03:32:08;7.20;99.90
16995;DHT22;8614;48.522;9.206;2024-03-22T03:34:35;7.20;99.90
16995;DHT22;8614;48.522;9.206;2024-03-22T03:37:02;7.20;99.90
16995;DHT22;8614;48.522;9.206;2024-03-22T03:39:29;7.10;99.90
16995;DHT22;8614;48.522;9.206;2024-03-22T03:41:54;7.20;99.90
16995;DHT22;8614;48.522;9.206;2024-03-22T03:44:21;7.20;99.90
16995;DHT22;8614;48.522;9.206;2024-03-22T03:46:47;7.20;99.90
16995;DHT22;8614;48.522;9.206;2024-03-22T03:49:15;7.20;99.90
16995;DHT22;8614;48.522;9.206;2024-03-22T03:51:41;7.20;99.90
16995;DHT22;8614;48.522;9.206;2024-03-22T03:54:08;7.20;99.90
16995;DHT22;8614;48.522;9.206;2024-03-22T03:56:34;7.30;99.90
16995;DHT22;8614;48.522;9.206;2024-03-22T03:59:01;7.20;99.90
16995;DHT22;8614;48.522;9.206;2024-03-22T04:01:27;7.20;99.90
16995;DHT22;8614;48.522;9.206;2024-03-22T04:03:53;7.20;99.90
16995;DHT22;8614;48.522;9.206;2024-03-22T04:06:20;7.20;99.90
16995;DHT22;8614;48.522;9.206;2024-03-22T04:08:47;7.20;99.90
16995;DHT22;8614;48.522;9.206;2024-03-22T04:11:14;7.20;99.90
16995;DHT22;8614;48.522;9.206;2024-03-22T04:13:40;7.20;99.90
16995;DHT22;8614;48.522;9.206;2024-03-22T04:16:07;7.20;99.90
16995;DHT22;8614;48.522;9.206;2024-03-22T04:18:32;7.20;99.90
16995;DHT22;8614;48.522;9.206;2024-03-22T04:20:59;7.10;99.90
16995;DHT22;8614;48.522;9.206;2024-03-22T04:23:27;7.10;99.90
16995;DHT22;8614;48.522;9.206;2024-03-22T04:25:54;7.10;99.90
16995;DHT22;8614;48.522;9.206;2024-03-22T04:28:20;7.00;99.90
16995;DHT22;8614;48.522;9.206;2024-03-22T04:30:58;7.00;99.90
16995;DHT22;8614;48.522;9.206;2024-03-22T04:33:24;6.90;99.90
16995;DHT22;8614;48.522;9.206;2024-03-22T04:35:51;6.90;99.90
16995;DHT22;8614;48.522;9.206;2024-03-22T04:38:17;6.90;99.90
16995;DHT22;8614;48.522;9.206;2024-03-22T04:40:45;6.80;99.90
16995;DHT22;8614;48.522;9.206;2024-03-22T04:43:12;6.70;99.90
16995;DHT22;8614;48.522;9.206;2024-03-22T04:45:37;6.70;99.90
16995;DHT22;8614;48.522;9.206;2024-03-22T04:48:05;6.60;99.90
16995;DHT22;8614;48.522;9.206;2024-03-22T04:50:31;6.50;99.90
16995;DHT22;8614;48.522;9.206;2024-03-22T04:52:57;6.50;99.90
16995;DHT22;8614;48.522;9.206;2024-03-22T04:55:23;6.50;99.90
16995;DHT22;8614;48.522;9.206;2024-03-22T04:57:52;6.50;99.90
16995;DHT22;8614;48.522;9.206;2024-03-22T05:00:19;6.50;99.90
16995;DHT22;8614;48.522;9.206;2024-03-22T05:02:45;6.50;99.90
16995;DHT22;8614;48.522;9.206;2024-03-22T05:05:12;6.50;99.90
16995;DHT22;8614;48.522;9.206;2024-03-22T05:07:38;6.50;99.90
16995;DHT22;8614;48.522;9.206;2024-03-22T05:10:05;6.50;99.90
16995;DHT22;8614;48.522;9.206;2024-03-22T05:12:31;6.50;99.90
16995;DHT22;8614;48.522;9.206;2024-03-22T05:14:59;6.60;99.90
16995;DHT22;8614;48.522;9.206;2024-03-22T05:17:25;6.60;99.90
16995;DHT22;8614;48.522;9.206;2024-03-22T05:19:52;6.70;99.90
16995;DHT22;8614;48.522;9.206;2024-03-22T05:22:18;6.70;99.90
16995;DHT22;8614;48.522;9.206;2024-03-22T05:24:47;6.70;99.90
16995;DHT22;8614;48.522;9.206;2024-03-22T05:27:13;6.70;99.90
16995;DHT22;8614;48.522;9.206;2024-03-22T05:29:40;6.80;99.90
16995;DHT22;8614;48.522;9.206;2024-03-22T05:32:07;6.80;99.90
16995;DHT22;8614;48.522;9.206;2024-03-22T05:34:34;6.80;99.90
16995;DHT22;8614;48.522;9.206;2024-03-22T05:37:01;6.90;99.90
16995;DHT22;8614;48.522;9.206;2024-03-22T05:39:27;6.90;99.90
16995;DHT22;8614;48.522;9.206;2024-03-22T05:41:53;7.00;99.90
16995;DHT22;8614;48.522;9.206;2024-03-22T05:44:21;7.10;99.90
16995;DHT22;8614;48.522;9.206;2024-03-22T05:46:47;7.20;99.90
16995;DHT22;8614;48.522;9.206;2024-03-22T05:49:15;7.20;99.90
16995;DHT22;8614;48.522;9.206;2024-03-22T05:51:41;7.30;99.90
16995;DHT22;8614;48.522;9.206;2024-03-22T05:54:08;7.40;99.90
16995;DHT22;8614;48.522;9.206;2024-03-22T05:56:34;7.40;99.90
16995;DHT22;8614;48.522;9.206;2024-03-22T05:59:01;7.50;99.90
16995;DHT22;8614;48.522;9.206;2024-03-22T06:01:27;7.60;99.90
16995;DHT22;8614;48.522;9.206;2024-03-22T06:03:53;7.70;99.90
16995;DHT22;8614;48.522;9.206;2024-03-22T06:06:21;7.80;99.90
16995;DHT22;8614;48.522;9.206;2024-03-22T06:08:50;7.90;99.90
16995;DHT22;8614;48.522;9.206;2024-03-22T06:11:18;8.00;99.90
16995;DHT22;8614;48.522;9.206;2024-03-22T06:13:45;8.20;99.90
16995;DHT22;8614;48.522;9.206;2024-03-22T06:16:11;8.40;99.90
16995;DHT22;8614;48.522;9.206;2024-03-22T06:18:38;8.60;99.90
16995;DHT22;8614;48.522;9.206;2024-03-22T06:21:04;8.80;99.90
16995;DHT22;8614;48.522;9.206;2024-03-22T06:23:33;9.00;99.90
16995;DHT22;8614;48.522;9.206;2024-03-22T06:25:59;9.20;99.90
16995;DHT22;8614;48.522;9.206;2024-03-22T06:28:27;9.40;99.90
16995;DHT22;8614;48.522;9.206;2024-03-22T06:30:53;9.50;99.90
16995;DHT22;8614;48.522;9.206;2024-03-22T06:33:20;9.40;99.90
16995;DHT22;8614;48.522;9.206;2024-03-22T06:35:46;9.40;99.90
16995;DHT22;8614;48.522;9.206;2024-03-22T06:38:13;9.40;99.90
16995;DHT22;8614;48.522;9.206;2024-03-22T06:40:40;9.40;99.90
16995;DHT22;8614;48.522;9.206;2024-03-22T06:43:07;9.50;99.90
16995;DHT22;8614;48.522;9.206;2024-03-22T06:45:34;9.60;99.90
16995;DHT22;8614;48.522;9.206;2024-03-22T06:48:01;9.80;99.90
16995;DHT22;8614;48.522;9.206;2024-03-22T06:50:27;10.00;99.90
16995;DHT22;8614;48.522;9.206;2024-03-22T06:52:53;10.30;99.90
16995;DHT22;8614;48.522;9.206;2024-03-22T06:55:19;10.60;99.90
16995;DHT22;8614;48.522;9.206;2024-03-22T06:57:49;10.90;99.90
16995;DHT22;8614;48.522;9.206;2024-03-22T07:00:17;11.20;99.90
16995;DHT22;8614;48.522;9.206;2024-03-22T07:02:44;11.50;99.90
16995;DHT22;8614;48.522;9.206;2024-03-22T07:05:11;11.70;99.90
16995;DHT22;8614;48.522;9.206;2024-03-22T07:07:38;11.70;99.90
16995;DHT22;8614;48.522;9.206;2024-03-22T07:10:05;11.70;99.90
16995;DHT22;8614;48.522;9.206;2024-03-22T07:12:32;11.80;99.90
16995;DHT22;8614;48.522;9.206;2024-03-22T07:14:59;12.00;99.90
16995;DHT22;8614;48.522;9.206;2024-03-22T07:17:26;12.10;99.90
16995;DHT22;8614;48.522;9.206;2024-03-22T07:19:52;12.20;99.90
16995;DHT22;8614;48.522;9.206;2024-03-22T07:22:19;12.40;99.90
16995;DHT22;8614;48.522;9.206;2024-03-22T07:27:12;12.50;99.90
16995;DHT22;8614;48.522;9.206;2024-03-22T07:29:39;12.70;99.90
16995;DHT22;8614;48.522;9.206;2024-03-22T07:32:07;12.90;99.90
16995;DHT22;8614;48.522;9.206;2024-03-22T07:34:33;13.20;99.90
16995;DHT22;8614;48.522;9.206;2024-03-22T07:37:00;13.70;99.90
16995;DHT22;8614;48.522;9.206;2024-03-22T07:39:26;14.20;99.90
16995;DHT22;8614;48.522;9.206;2024-03-22T07:41:53;14.60;99.90
16995;DHT22;8614;48.522;9.206;2024-03-22T07:44:19;14.90;99.90
16995;DHT22;8614;48.522;9.206;2024-03-22T07:46:46;15.10;99.90
16995;DHT22;8614;48.522;9.206;2024-03-22T07:49:13;15.50;99.90
16995;DHT22;8614;48.522;9.206;2024-03-22T07:51:40;15.80;99.90
16995;DHT22;8614;48.522;9.206;2024-03-22T07:54:06;16.20;99.90
16995;DHT22;8614;48.522;9.206;2024-03-22T07:56:33;16.40;99.90
16995;DHT22;8614;48.522;9.206;2024-03-22T07:58:58;16.50;99.90
16995;DHT22;8614;48.522;9.206;2024-03-22T08:01:26;16.70;99.90
16995;DHT22;8614;48.522;9.206;2024-03-22T08:03:51;16.90;99.90
16995;DHT22;8614;48.522;9.206;2024-03-22T08:06:20;17.10;99.90
16995;DHT22;8614;48.522;9.206;2024-03-22T08:08:46;17.20;99.90
16995;DHT22;8614;48.522;9.206;2024-03-22T08:11:13;17.00;99.90
16995;DHT22;8614;48.522;9.206;2024-03-22T08:13:39;17.20;99.90
16995;DHT22;8614;48.522;9.206;2024-03-22T08:16:05;17.50;99.90
16995;DHT22;8614;48.522;9.206;2024-03-22T08:18:31;17.60;99.90
16995;DHT22;8614;48.522;9.206;2024-03-22T08:20:59;17.90;99.90
16995;DHT22;8614;48.522;9.206;2024-03-22T08:23:29;17.90;99.90
16995;DHT22;8614;48.522;9.206;2024-03-22T08:25:57;18.00;99.90
16995;DHT22;8614;48.522;9.206;2024-03-22T08:28:23;18.20;99.90
16995;DHT22;8614;48.522;9.206;2024-03-22T08:30:50;18.30;99.90
16995;DHT22;8614;48.522;9.206;2024-03-22T08:33:15;18.40;99.90
16995;DHT22;8614;48.522;9.206;2024-03-22T08:35:42;18.30;99.90
16995;DHT22;8614;48.522;9.206;2024-03-22T08:38:08;18.50;99.90
16995;DHT22;8614;48.522;9.206;2024-03-22T08:40:38;18.50;99.90
16995;DHT22;8614;48.522;9.206;2024-03-22T08:43:04;18.50;99.90
16995;DHT22;8614;48.522;9.206;2024-03-22T08:45:33;18.70;99.90
16995;DHT22;8614;48.522;9.206;2024-03-22T08:47:58;18.90;99.90
16995;DHT22;8614;48.522;9.206;2024-03-22T08:50:25;18.90;99.90
16995;DHT22;8614;48.522;9.206;2024-03-22T08:52:51;19.20;99.90
16995;DHT22;8614;48.522;9.206;2024-03-22T08:55:18;19.40;99.90
16995;DHT22;8614;48.522;9.206;2024-03-22T08:57:45;19.60;99.90
16995;DHT22;8614;48.522;9.206;2024-03-22T09:00:13;19.90;99.90
16995;DHT22;8614;48.522;9.206;2024-03-22T09:02:39;20.00;99.90
16995;DHT22;8614;48.522;9.206;2024-03-22T09:05:06;20.00;99.90
16995;DHT22;8614;48.522;9.206;2024-03-22T09:07:34;20.10;99.90
16995;DHT22;8614;48.522;9.206;2024-03-22T09:10:00;20.20;99.90
16995;DHT22;8614;48.522;9.206;2024-03-22T09:12:27;20.20;99.90
16995;DHT22;8614;48.522;9.206;2024-03-22T09:14:54;20.50;99.90
16995;DHT22;8614;48.522;9.206;2024-03-22T09:17:21;20.70;99.90
16995;DHT22;8614;48.522;9.206;2024-03-22T09:19:47;20.90;99.90
16995;DHT22;8614;48.522;9.206;2024-03-22T09:22:14;21.00;99.90
16995;DHT22;8614;48.522;9.206;2024-03-22T09:24:40;21.30;99.90
16995;DHT22;8614;48.522;9.206;2024-03-22T09:27:07;21.20;99.90
16995;DHT22;8614;48.522;9.206;2024-03-22T09:29:35;21.20;99.90
16995;DHT22;8614;48.522;9.206;2024-03-22T09:32:04;21.30;99.90
16995;DHT22;8614;48.522;9.206;2024-03-22T09:34:30;21.30;99.90
16995;DHT22;8614;48.522;9.206;2024-03-22T09:36:57;21.30;99.90
16995;DHT22;8614;48.522;9.206;2024-03-22T09:39:23;21.20;99.90
16995;DHT22;8614;48.522;9.206;2024-03-22T09:41:51;21.20;99.90
16995;DHT22;8614;48.522;9.206;2024-03-22T09:44:18;21.00;99.90
16995;DHT22;8614;48.522;9.206;2024-03-22T09:46:46;20.90;99.90
16995;DHT22;8614;48.522;9.206;2024-03-22T09:49:14;20.80;99.90
16995;DHT22;8614;48.522;9.206;2024-03-22T09:51:43;20.90;99.90
16995;DHT22;8614;48.522;9.206;2024-03-22T09:54:09;21.00;99.90
16995;DHT22;8614;48.522;9.206;2024-03-22T09:56:38;21.20;99.90
16995;DHT22;8614;48.522;9.206;2024-03-22T09:59:05;21.40;99.90
16995;DHT22;8614;48.522;9.206;2024-03-22T10:01:32;21.30;99.90
16995;DHT22;8614;48.522;9.206;2024-03-22T10:04:00;21.20;99.90
16995;DHT22;8614;48.522;9.206;2024-03-22T10:06:29;21.20;99.90
16995;DHT22;8614;48.522;9.206;2024-03-22T10:08:57;21.20;99.90
16995;DHT22;8614;48.522;9.206;2024-03-22T10:11:26;21.00;99.90
16995;DHT22;8614;48.522;9.206;2024-03-22T10:13:52;20.70;99.90
16995;DHT22;8614;48.522;9.206;2024-03-22T10:16:20;20.60;99.90
16995;DHT22;8614;48.522;9.206;2024-03-22T10:18:46;20.50;99.90
16995;DHT22;8614;48.522;9.206;2024-03-22T10:21:18;20.70;99.90
16995;DHT22;8614;48.522;9.206;2024-03-22T10:23:46;20.80;99.90
16995;DHT22;8614;48.522;9.206;2024-03-22T10:26:14;21.00;99.90
16995;DHT22;8614;48.522;9.206;2024-03-22T10:28:44;21.00;99.90
16995;DHT22;8614;48.522;9.206;2024-03-22T10:31:12;20.60;99.90
16995;DHT22;8614;48.522;9.206;2024-03-22T10:33:38;20.50;99.90
16995;DHT22;8614;48.522;9.206;2024-03-22T10:36:07;20.40;99.90
16995;DHT22;8614;48.522;9.206;2024-03-22T10:38:33;20.20;99.90
16995;DHT22;8614;48.522;9.206;2024-03-22T10:41:04;20.10;99.90
16995;DHT22;8614;48.522;9.206;2024-03-22T10:43:30;19.90;99.90
16995;DHT22;8614;48.522;9.206;2024-03-22T10:46:01;19.90;99.90
16995;DHT22;8614;48.522;9.206;2024-03-22T10:48:29;19.90;99.90
16995;DHT22;8614;48.522;9.206;2024-03-22T10:51:01;19.90;99.90
16995;DHT22;8614;48.522;9.206;2024-03-22T10:53:31;20.10;99.90
16995;DHT22;8614;48.522;9.206;2024-03-22T10:56:00;20.20;99.90
16995;DHT22;8614;48.522;9.206;2024-03-22T10:58:28;20.20;99.90
16995;DHT22;8614;48.522;9.206;2024-03-22T11:00:56;20.30;99.90
16995;DHT22;8614;48.522;9.206;2024-03-22T11:03:23;20.20;99.90
16995;DHT22;8614;48.522;9.206;2024-03-22T11:05:53;20.20;99.90
16995;DHT22;8614;48.522;9.206;2024-03-22T11:08:23;20.20;99.90
16995;DHT22;8614;48.522;9.206;2024-03-22T11:10:50;20.00;99.90
16995;DHT22;8614;48.522;9.206;2024-03-22T11:13:17;20.00;99.90
16995;DHT22;8614;48.522;9.206;2024-03-22T11:15:47;20.00;99.90
16995;DHT22;8614;48.522;9.206;2024-03-22T11:18:13;20.00;99.90
16995;DHT22;8614;48.522;9.206;2024-03-22T11:20:41;20.10;99.90
16995;DHT22;8614;48.522;9.206;2024-03-22T11:23:07;20.10;99.90
16995;DHT22;8614;48.522;9.206;2024-03-22T11:25:35;20.20;99.90
16995;DHT22;8614;48.522;9.206;2024-03-22T11:28:03;20.20;99.90
16995;DHT22;8614;48.522;9.206;2024-03-22T11:30:29;20.10;99.90
16995;DHT22;8614;48.522;9.206;2024-03-22T11:32:57;20.10;99.90
16995;DHT22;8614;48.522;9.206;2024-03-22T11:35:26;20.20;99.90
16995;DHT22;8614;48.522;9.206;2024-03-22T11:37:56;20.10;99.90
16995;DHT22;8614;48.522;9.206;2024-03-22T11:40:25;20.10;99.90
16995;DHT22;8614;48.522;9.206;2024-03-22T11:42:54;20.10;99.90
16995;DHT22;8614;48.522;9.206;2024-03-22T11:45:21;20.00;99.90
16995;DHT22;8614;48.522;9.206;2024-03-22T11:47:49;20.00;99.90
16995;DHT22;8614;48.522;9.206;2024-03-22T11:50:17;19.90;99.90
16995;DHT22;8614;48.522;9.206;2024-03-22T11:52:44;19.80;99.90
16995;DHT22;8614;48.522;9.206;2024-03-22T11:55:13;19.70;99.90
16995;DHT22;8614;48.522;9.206;2024-03-22T11:57:40;19.70;99.90
16995;DHT22;8614;48.522;9.206;2024-03-22T12:00:07;19.70;99.90
16995;DHT22;8614;48.522;9.206;2024-03-22T12:02:38;19.60;99.90
16995;DHT22;8614;48.522;9.206;2024-03-22T12:05:05;19.50;99.90
16995;DHT22;8614;48.522;9.206;2024-03-22T12:07:34;19.50;99.90
16995;DHT22;8614;48.522;9.206;2024-03-22T12:10:00;19.40;99.90
16995;DHT22;8614;48.522;9.206;2024-03-22T12:12:26;19.50;99.90
16995;DHT22;8614;48.522;9.206;2024-03-22T12:14:52;19.50;99.90
16995;DHT22;8614;48.522;9.206;2024-03-22T12:17:19;19.60;99.90
16995;DHT22;8614;48.522;9.206;2024-03-22T12:19:45;19.70;99.90
16995;DHT22;8614;48.522;9.206;2024-03-22T12:22:12;19.80;99.90
16995;DHT22;8614;48.522;9.206;2024-03-22T12:24:40;19.80;99.90
16995;DHT22;8614;48.522;9.206;2024-03-22T12:27:07;19.90;99.90
16995;DHT22;8614;48.522;9.206;2024-03-22T12:29:34;19.90;99.90
16995;DHT22;8614;48.522;9.206;2024-03-22T12:32:02;19.90;99.90
16995;DHT22;8614;48.522;9.206;2024-03-22T12:34:29;20.00;99.90
16995;DHT22;8614;48.522;9.206;2024-03-22T12:36:56;20.00;99.90
16995;DHT22;8614;48.522;9.206;2024-03-22T12:39:22;20.10;99.90
16995;DHT22;8614;48.522;9.206;2024-03-22T12:41:50;20.00;99.90
16995;DHT22;8614;48.522;9.206;2024-03-22T12:44:16;20.00;99.90
16995;DHT22;8614;48.522;9.206;2024-03-22T12:46:43;20.10;99.90
16995;DHT22;8614;48.522;9.206;2024-03-22T12:49:10;20.10;99.90
16995;DHT22;8614;48.522;9.206;2024-03-22T12:51:37;20.10;99.90
16995;DHT22;8614;48.522;9.206;2024-03-22T12:54:04;20.10;99.90
16995;DHT22;8614;48.522;9.206;2024-03-22T12:56:31;20.30;99.90
16995;DHT22;8614;48.522;9.206;2024-03-22T12:58:58;20.40;99.90
16995;DHT22;8614;48.522;9.206;2024-03-22T13:01:25;20.40;99.90
16995;DHT22;8614;48.522;9.206;2024-03-22T13:03:51;20.30;99.90
16995;DHT22;8614;48.522;9.206;2024-03-22T13:06:18;20.30;99.90
16995;DHT22;8614;48.522;9.206;2024-03-22T13:08:45;20.30;99.90
16995;DHT22;8614;48.522;9.206;2024-03-22T13:11:12;20.40;99.90
16995;DHT22;8614;48.522;9.206;2024-03-22T13:13:38;20.40;99.90
16995;DHT22;8614;48.522;9.206;2024-03-22T13:16:06;20.30;99.90
16995;DHT22;8614;48.522;9.206;2024-03-22T13:18:34;20.30;99.90
16995;DHT22;8614;48.522;9.206;2024-03-22T13:21:01;20.20;99.90
16995;DHT22;8614;48.522;9.206;2024-03-22T13:23:28;20.10;99.90
16995;DHT22;8614;48.522;9.206;2024-03-22T13:25:55;20.10;99.90
16995;DHT22;8614;48.522;9.206;2024-03-22T13:28:27;20.00;99.90
16995;DHT22;8614;48.522;9.206;2024-03-22T13:30:59;20.10;99.90
16995;DHT22;8614;48.522;9.206;2024-03-22T13:33:27;20.20;99.90
16995;DHT22;8614;48.522;9.206;2024-03-22T13:35:53;20.30;99.90
16995;DHT22;8614;48.522;9.206;2024-03-22T13:38:19;20.40;99.90
16995;DHT22;8614;48.522;9.206;2024-03-22T13:40:53;20.40;99.90
16995;DHT22;8614;48.522;9.206;2024-03-22T13:43:22;20.30;99.90
16995;DHT22;8614;48.522;9.206;2024-03-22T13:45:51;20.20;99.90
16995;DHT22;8614;48.522;9.206;2024-03-22T13:48:20;20.20;99.90
16995;DHT22;8614;48.522;9.206;2024-03-22T13:50:51;20.20;99.90
16995;DHT22;8614;48.522;9.206;2024-03-22T13:53:17;20.10;99.90
16995;DHT22;8614;48.522;9.206;2024-03-22T13:55:44;20.10;99.90
16995;DHT22;8614;48.522;9.206;2024-03-22T13:58:11;20.20;99.90
16995;DHT22;8614;48.522;9.206;2024-03-22T14:00:38;20.10;99.90
16995;DHT22;8614;48.522;9.206;2024-03-22T14:03:05;20.10;99.90
16995;DHT22;8614;48.522;9.206;2024-03-22T14:05:32;20.00;99.90
16995;DHT22;8614;48.522;9.206;2024-03-22T14:07:59;20.10;99.90
16995;DHT22;8614;48.522;9.206;2024-03-22T14:10:26;20.20;99.90
16995;DHT22;8614;48.522;9.206;2024-03-22T14:12:53;20.30;99.90
16995;DHT22;8614;48.522;9.206;2024-03-22T14:15:20;20.40;99.90
16995;DHT22;8614;48.522;9.206;2024-03-22T14:17:45;20.50;99.90
16995;DHT22;8614;48.522;9.206;2024-03-22T14:20:13;20.60;99.90
16995;DHT22;8614;48.522;9.206;2024-03-22T14:22:39;20.60;99.90
16995;DHT22;8614;48.522;9.206;2024-03-22T14:25:08;20.50;99.90
16995;DHT22;8614;48.522;9.206;2024-03-22T14:27:34;20.50;99.90
16995;DHT22;8614;48.522;9.206;2024-03-22T14:30:02;20.40;99.30
16995;DHT22;8614;48.522;9.206;2024-03-22T14:32:31;20.40;99.20
16995;DHT22;8614;48.522;9.206;2024-03-22T14:34:57;20.40;99.00
16995;DHT22;8614;48.522;9.206;2024-03-22T14:37:23;20.30;98.60
16995;DHT22;8614;48.522;9.206;2024-03-22T14:39:50;20.30;98.80
16995;DHT22;8614;48.522;9.206;2024-03-22T14:42:17;20.20;99.30
16995;DHT22;8614;48.522;9.206;2024-03-22T14:44:44;20.20;99.80
16995;DHT22;8614;48.522;9.206;2024-03-22T14:47:10;20.20;99.90
16995;DHT22;8614;48.522;9.206;2024-03-22T14:49:37;20.20;99.90
16995;DHT22;8614;48.522;9.206;2024-03-22T14:52:03;20.20;99.90
16995;DHT22;8614;48.522;9.206;2024-03-22T14:54:30;20.30;99.90
16995;DHT22;8614;48.522;9.206;2024-03-22T14:56:56;20.40;99.90
16995;DHT22;8614;48.522;9.206;2024-03-22T14:59:27;20.50;99.70
16995;DHT22;8614;48.522;9.206;2024-03-22T15:01:53;20.40;97.90
16995;DHT22;8614;48.522;9.206;2024-03-22T15:04:23;20.40;99.10
16995;DHT22;8614;48.522;9.206;2024-03-22T15:06:49;20.30;98.40
16995;DHT22;8614;48.522;9.206;2024-03-22T15:09:19;20.30;98.20
16995;DHT22;8614;48.522;9.206;2024-03-22T15:11:45;20.20;98.00
16995;DHT22;8614;48.522;9.206;2024-03-22T15:14:11;20.10;97.80
16995;DHT22;8614;48.522;9.206;2024-03-22T15:16:39;19.90;97.70
16995;DHT22;8614;48.522;9.206;2024-03-22T15:19:07;19.70;98.20
16995;DHT22;8614;48.522;9.206;2024-03-22T15:21:33;19.60;98.90
16995;DHT22;8614;48.522;9.206;2024-03-22T15:24:00;19.40;99.40
16995;DHT22;8614;48.522;9.206;2024-03-22T15:26:26;19.40;99.60
16995;DHT22;8614;48.522;9.206;2024-03-22T15:28:53;19.40;99.30
16995;DHT22;8614;48.522;9.206;2024-03-22T15:31:18;19.50;99.50
16995;DHT22;8614;48.522;9.206;2024-03-22T15:33:47;19.50;99.20
16995;DHT22;8614;48.522;9.206;2024-03-22T15:36:12;19.50;99.90
16995;DHT22;8614;48.522;9.206;2024-03-22T15:38:39;19.50;99.90
16995;DHT22;8614;48.522;9.206;2024-03-22T15:41:05;19.40;99.90
16995;DHT22;8614;48.522;9.206;2024-03-22T15:43:32;19.40;99.90
16995;DHT22;8614;48.522;9.206;2024-03-22T15:45:59;19.20;99.90
16995;DHT22;8614;48.522;9.206;2024-03-22T15:48:29;19.10;99.90
16995;DHT22;8614;48.522;9.206;2024-03-22T15:50:57;19.00;99.90
16995;DHT22;8614;48.522;9.206;2024-03-22T15:53:25;18.80;99.90